Time;durP1;ratioP1;P1;durP2;ratioP2;P2;SDS_P1;SDS_P2;PMS_P1;PMS_P2;Temp;Humidity;BMP_temperature;BMP_pressure;BME280_temperature;BME280_humidity;BME280_pressure;Samples;Min_cycle;Max_cycle;Signal;HPM_P1;HPM_P2
2022/03/07 00:00:53;;;;;;;12.13;10.27;;;0.80;83.40;;;;;;2095820;28;20036;-67
2022/03/07 00:01:54;;;;;;;13.48;11.02;;;0.80;83.60;;;;;;2092511;28;20024;-67
2022/03/07 00:02:55;;;;;;;12.45;10.52;;;0.80;83.90;;;;;;2090808;28;20477;-67
2022/03/07 00:03:56;;;;;;;14.50;11.27;;;0.80;84.20;;;;;;2096566;28;20527;-67
2022/03/07 00:04:56;;;;;;;12.77;10.77;;;0.80;84.40;;;;;;2092972;28;20433;-67
2022/03/07 00:05:57;;;;;;;12.65;10.23;;;0.80;84.50;;;;;;2093966;28;20707;-67
2022/03/07 00:06:57;;;;;;;11.60;10.00;;;0.70;84.40;;;;;;2095172;28;20361;-67
2022/03/07 00:07:58;;;;;;;11.00;9.80;;;0.70;84.40;;;;;;2091553;28;20111;-67
2022/03/07 00:08:59;;;;;;;14.25;11.35;;;0.70;84.30;;;;;;2093218;28;20025;-67
2022/03/07 00:09:59;;;;;;;11.77;10.57;;;0.70;84.50;;;;;;2096098;28;20406;-67
2022/03/07 00:11:00;;;;;;;12.55;11.07;;;0.70;85.70;;;;;;2092965;28;20029;-67
2022/03/07 00:12:01;;;;;;;12.30;10.88;;;0.70;85.80;;;;;;2094389;28;20437;-67
2022/03/07 00:13:02;;;;;;;12.15;10.25;;;0.70;86.10;;;;;;2095536;28;20048;-67
2022/03/07 00:14:03;;;;;;;12.30;10.48;;;0.70;86.10;;;;;;2093340;28;20074;-67
2022/03/07 00:15:04;;;;;;;15.65;10.38;;;0.60;85.70;;;;;;2096204;28;20082;-67
2022/03/07 00:16:05;;;;;;;11.68;9.88;;;0.70;86.50;;;;;;2094262;28;20408;-67
2022/03/07 00:17:06;;;;;;;12.02;10.82;;;0.70;85.60;;;;;;2095202;28;20361;-67
2022/03/07 00:18:06;;;;;;;12.40;10.65;;;0.60;85.50;;;;;;2090261;28;20426;-67
2022/03/07 00:19:07;;;;;;;14.80;12.20;;;0.60;85.70;;;;;;2093918;28;20023;-67
2022/03/07 00:20:08;;;;;;;13.23;11.07;;;0.60;86.40;;;;;;2090283;28;20021;-67
2022/03/07 00:21:09;;;;;;;11.10;9.93;;;0.60;87.00;;;;;;2099820;28;20028;-67
2022/03/07 00:22:10;;;;;;;11.52;9.45;;;0.60;87.00;;;;;;2092929;28;20067;-67
2022/03/07 00:23:11;;;;;;;12.93;10.48;;;0.60;86.80;;;;;;2092501;28;20028;-67
2022/03/07 00:24:12;;;;;;;12.48;10.13;;;0.60;86.60;;;;;;2098804;28;20024;-67
2022/03/07 00:25:12;;;;;;;13.38;10.82;;;0.60;87.60;;;;;;2097529;28;20153;-67
2022/03/07 00:26:13;;;;;;;13.65;10.77;;;0.50;87.40;;;;;;2091443;28;20025;-67
2022/03/07 00:27:14;;;;;;;18.15;11.38;;;0.60;87.60;;;;;;2093192;28;20029;-67
2022/03/07 00:28:16;;;;;;;12.80;10.30;;;0.60;88.10;;;;;;2092959;28;20067;-67
2022/03/07 00:29:17;;;;;;;14.88;10.52;;;0.50;88.10;;;;;;2095329;28;20067;-67
2022/03/07 00:30:19;;;;;;;13.48;10.75;;;0.50;87.80;;;;;;2096009;28;20029;-67
2022/03/07 00:31:21;;;;;;;13.50;10.77;;;0.50;87.60;;;;;;2092041;28;20059;-67
2022/03/07 00:32:21;;;;;;;14.30;12.80;;;0.50;88.10;;;;;;2096734;28;20032;-67
2022/03/07 00:33:22;;;;;;;13.13;11.18;;;0.50;89.60;;;;;;2093220;28;20017;-67
2022/03/07 00:34:23;;;;;;;12.93;11.40;;;0.50;89.50;;;;;;2097206;28;20445;-67
2022/03/07 00:35:23;;;;;;;13.23;11.80;;;0.50;89.20;;;;;;2091482;28;20074;-67
2022/03/07 00:36:25;;;;;;;13.38;10.88;;;0.50;89.70;;;;;;2093321;28;20067;-67
2022/03/07 00:37:26;;;;;;;14.35;12.43;;;0.50;89.40;;;;;;2093979;28;20032;-67
2022/03/07 00:38:27;;;;;;;13.68;10.82;;;0.50;90.00;;;;;;2091073;28;20385;-67
2022/03/07 00:39:28;;;;;;;10.38;9.25;;;0.50;90.50;;;;;;2093833;28;20025;-67
2022/03/07 00:40:28;;;;;;;12.45;11.10;;;0.40;90.30;;;;;;2091124;28;20112;-67
2022/03/07 00:41:29;;;;;;;13.13;11.32;;;0.40;90.30;;;;;;2092321;28;20417;-67
2022/03/07 00:42:29;;;;;;;14.55;10.85;;;0.40;90.40;;;;;;2092112;28;20033;-67
2022/03/07 00:43:30;;;;;;;14.60;11.07;;;0.40;90.40;;;;;;2092221;28;20038;-67
2022/03/07 00:44:30;;;;;;;13.80;11.35;;;0.40;90.40;;;;;;2093968;28;20032;-68
2022/03/07 00:45:31;;;;;;;14.95;11.25;;;0.40;90.40;;;;;;2096518;28;20032;-67
2022/03/07 00:46:31;;;;;;;15.18;11.38;;;0.40;90.30;;;;;;2093960;28;20055;-67
2022/03/07 00:47:32;;;;;;;14.63;12.18;;;0.40;90.40;;;;;;2091422;28;20083;-67
2022/03/07 00:48:33;;;;;;;13.00;10.68;;;0.40;90.40;;;;;;2092990;28;20384;-67
2022/03/07 00:49:33;;;;;;;14.68;11.73;;;0.40;90.40;;;;;;2096574;28;20444;-67
2022/03/07 00:50:34;;;;;;;19.15;13.77;;;0.50;90.60;;;;;;2094736;28;20052;-67
2022/03/07 00:51:35;;;;;;;14.40;11.85;;;0.40;91.20;;;;;;2095385;28;20039;-67
2022/03/07 00:52:35;;;;;;;14.07;11.32;;;0.40;91.50;;;;;;2097169;28;20020;-67
2022/03/07 00:53:36;;;;;;;15.63;13.07;;;0.40;91.30;;;;;;2095004;28;20116;-67
2022/03/07 00:54:36;;;;;;;14.43;12.05;;;0.40;91.50;;;;;;2097580;28;20497;-67
2022/03/07 00:55:38;;;;;;;16.67;12.98;;;0.40;91.90;;;;;;2097953;28;20449;-67
2022/03/07 00:56:38;;;;;;;15.18;12.98;;;0.40;92.10;;;;;;2096802;28;20028;-67
2022/03/07 00:57:39;;;;;;;16.90;13.60;;;0.40;92.30;;;;;;2092317;28;20048;-67
2022/03/07 00:58:39;;;;;;;15.02;13.32;;;0.40;92.50;;;;;;2092835;28;20053;-67
2022/03/07 00:59:40;;;;;;;13.15;11.68;;;0.40;92.90;;;;;;2092559;28;20040;-67
2022/03/07 01:00:41;;;;;;;15.15;13.18;;;0.40;92.80;;;;;;2097098;28;20442;-67
2022/03/07 01:01:42;;;;;;;23.50;14.57;;;0.40;92.90;;;;;;2095700;28;20028;-67
2022/03/07 01:02:42;;;;;;;17.60;14.95;;;0.40;93.70;;;;;;2091858;28;20028;-67
2022/03/07 01:03:45;;;;;;;20.80;15.00;;;0.40;94.40;;;;;;2092264;28;20025;-67
2022/03/07 01:04:46;;;;;;;17.00;13.52;;;0.40;94.70;;;;;;2098068;28;20020;-67
2022/03/07 01:05:47;;;;;;;17.00;13.07;;;0.40;94.90;;;;;;2091148;28;20464;-67
2022/03/07 01:06:47;;;;;;;19.27;15.05;;;0.40;94.70;;;;;;2095918;28;20020;-67
2022/03/07 01:07:48;;;;;;;19.65;16.15;;;0.40;95.10;;;;;;2093928;28;20044;-67
2022/03/07 01:08:49;;;;;;;21.73;16.90;;;0.40;95.70;;;;;;2093940;28;20078;-68
2022/03/07 01:09:49;;;;;;;18.35;16.23;;;0.40;96.10;;;;;;2094679;28;20020;-67
2022/03/07 01:10:50;;;;;;;18.10;15.75;;;0.40;96.40;;;;;;2094682;28;20074;-67
2022/03/07 01:11:50;;;;;;;18.52;15.90;;;0.40;96.60;;;;;;2095515;28;20362;-67
2022/03/07 01:12:51;;;;;;;21.70;16.58;;;0.40;96.80;;;;;;2098457;28;20017;-67
2022/03/07 01:13:52;;;;;;;16.27;14.57;;;0.40;97.10;;;;;;2092076;28;20440;-67
2022/03/07 01:14:52;;;;;;;19.00;15.38;;;0.40;97.20;;;;;;2090949;28;20020;-67
2022/03/07 01:15:53;;;;;;;22.73;16.13;;;0.40;97.30;;;;;;2094097;28;20036;-67
2022/03/07 01:16:53;;;;;;;22.00;15.80;;;0.40;97.40;;;;;;2097039;28;20031;-67
2022/03/07 01:17:54;;;;;;;17.67;14.73;;;0.40;97.90;;;;;;2093545;28;20055;-67
2022/03/07 01:18:55;;;;;;;19.38;15.50;;;0.40;98.10;;;;;;2095119;28;20035;-67
2022/03/07 01:19:55;;;;;;;18.25;14.20;;;0.40;98.00;;;;;;2090947;28;20035;-67
2022/03/07 01:20:56;;;;;;;20.00;16.05;;;0.40;98.00;;;;;;2094490;28;20556;-67
2022/03/07 01:21:57;;;;;;;21.73;17.20;;;0.40;98.20;;;;;;2095358;28;20507;-67
2022/03/07 01:22:57;;;;;;;17.52;15.45;;;0.40;98.70;;;;;;2094744;28;20044;-67
2022/03/07 01:23:58;;;;;;;18.98;16.17;;;0.40;99.10;;;;;;2094392;28;20539;-67
2022/03/07 01:24:58;;;;;;;21.63;16.73;;;0.40;99.50;;;;;;2096051;28;20028;-67
2022/03/07 01:25:59;;;;;;;21.23;16.25;;;0.40;99.80;;;;;;2094480;28;20039;-67
2022/03/07 01:26:59;;;;;;;20.08;15.82;;;0.40;99.90;;;;;;2096043;28;20732;-67
2022/03/07 01:28:00;;;;;;;20.27;15.88;;;0.40;99.90;;;;;;2092499;28;20513;-67
2022/03/07 01:29:00;;;;;;;19.95;15.05;;;0.40;99.90;;;;;;2095280;28;20039;-67
2022/03/07 01:30:02;;;;;;;18.35;15.98;;;0.40;99.90;;;;;;2092800;28;20029;-67
2022/03/07 01:31:02;;;;;;;22.95;16.98;;;0.40;99.90;;;;;;2091460;28;20108;-67
2022/03/07 01:32:03;;;;;;;20.40;17.05;;;0.40;99.90;;;;;;2094149;28;20028;-67
2022/03/07 01:33:04;;;;;;;18.48;15.35;;;0.40;99.90;;;;;;2096177;28;20074;-67
2022/03/07 01:34:04;;;;;;;19.88;15.98;;;0.40;99.90;;;;;;2095032;28;20027;-67
2022/03/07 01:35:06;;;;;;;20.75;16.33;;;0.40;99.90;;;;;;2092881;28;20471;-67
2022/03/07 01:36:07;;;;;;;20.17;16.10;;;0.40;99.90;;;;;;2093503;28;20027;-67
2022/03/07 01:37:08;;;;;;;22.02;16.67;;;0.40;99.90;;;;;;2092059;28;20020;-67
2022/03/07 01:38:08;;;;;;;18.90;16.33;;;0.40;99.90;;;;;;2094065;28;20034;-67
2022/03/07 01:39:09;;;;;;;18.02;14.85;;;0.50;99.90;;;;;;2094192;28;20032;-67
2022/03/07 01:40:10;;;;;;;17.98;16.08;;;0.40;99.90;;;;;;2093741;28;20079;-67
2022/03/07 01:41:11;;;;;;;15.48;12.43;;;0.50;99.90;;;;;;2094865;28;20419;-67
2022/03/07 01:42:12;;;;;;;20.48;15.88;;;0.50;99.90;;;;;;2093021;28;20372;-67
2022/03/07 01:43:12;;;;;;;21.65;16.95;;;0.50;99.90;;;;;;2094320;28;20033;-67
2022/03/07 01:44:22;;;;;;;20.90;16.33;;;0.50;99.90;;;;;;2095431;28;20033;-67
2022/03/07 01:45:22;;;;;;;19.95;15.18;;;0.50;99.90;;;;;;2093330;28;20024;-67
2022/03/07 01:46:23;;;;;;;21.17;17.02;;;0.50;99.90;;;;;;2094579;28;20028;-67
2022/03/07 01:47:25;;;;;;;18.48;16.42;;;0.50;99.90;;;;;;2091462;28;20025;-67
2022/03/07 01:48:26;;;;;;;19.92;16.13;;;0.50;99.90;;;;;;2099365;28;20365;-67
2022/03/07 01:49:27;;;;;;;18.55;16.55;;;0.50;99.90;;;;;;2099624;28;20032;-67
2022/03/07 01:50:28;;;;;;;16.45;14.73;;;0.50;99.90;;;;;;2091724;28;20025;-67
2022/03/07 01:51:28;;;;;;;19.15;16.40;;;0.50;99.90;;;;;;2092570;28;20029;-67
2022/03/07 01:52:29;;;;;;;20.67;15.82;;;0.50;99.90;;;;;;2095898;28;20021;-67
2022/03/07 01:53:30;;;;;;;20.75;16.70;;;0.60;99.90;;;;;;2097453;28;20020;-67
2022/03/07 01:54:31;;;;;;;22.05;18.17;;;0.60;99.90;;;;;;2091974;28;20023;-67
2022/03/07 01:55:31;;;;;;;20.65;17.23;;;0.60;99.90;;;;;;2095384;28;20032;-67
2022/03/07 01:56:32;;;;;;;22.02;17.35;;;0.60;99.90;;;;;;2093652;28;20045;-67
2022/03/07 01:57:36;;;;;;;19.67;17.15;;;0.60;99.90;;;;;;2091538;28;20139;-67
2022/03/07 01:58:36;;;;;;;20.67;17.00;;;0.60;99.90;;;;;;2094447;28;20788;-67
2022/03/07 01:59:37;;;;;;;20.98;17.33;;;0.60;99.90;;;;;;2093057;28;20434;-67
2022/03/07 02:00:39;;;;;;;22.40;17.55;;;0.60;99.90;;;;;;2096597;28;20025;-67
2022/03/07 02:01:40;;;;;;;18.98;16.70;;;0.60;99.90;;;;;;2093017;28;20075;-67
2022/03/07 02:02:42;;;;;;;21.15;16.88;;;0.60;99.90;;;;;;2093584;28;20032;-67
2022/03/07 02:03:43;;;;;;;19.60;16.90;;;0.60;99.90;;;;;;2093242;28;20417;-67
2022/03/07 02:04:44;;;;;;;22.00;17.38;;;0.60;99.90;;;;;;2095864;28;20346;-67
2022/03/07 02:05:49;;;;;;;22.33;17.10;;;0.60;99.90;;;;;;2093678;28;20077;-67
2022/03/07 02:06:49;;;;;;;20.95;18.23;;;0.70;99.90;;;;;;2090114;28;20492;-67
2022/03/07 02:07:50;;;;;;;21.27;17.35;;;0.60;99.90;;;;;;2092879;28;21260;-67
2022/03/07 02:08:52;;;;;;;19.38;17.02;;;0.70;99.90;;;;;;2094198;28;20033;-67
2022/03/07 02:09:54;;;;;;;20.25;17.13;;;0.70;99.90;;;;;;2093221;28;20032;-67
2022/03/07 02:10:54;;;;;;;20.27;17.38;;;0.70;99.90;;;;;;2093018;28;20033;-67
2022/03/07 02:11:55;;;;;;;23.10;17.60;;;0.70;99.90;;;;;;2092543;28;20021;-67
2022/03/07 02:12:56;;;;;;;19.98;16.65;;;0.70;99.90;;;;;;2093475;28;20427;-67
2022/03/07 02:13:56;;;;;;;20.80;18.48;;;0.70;99.90;;;;;;2091133;28;20021;-67
2022/03/07 02:14:57;;;;;;;21.90;18.33;;;0.70;99.90;;;;;;2089179;28;20014;-67
2022/03/07 02:15:57;;;;;;;21.52;16.92;;;0.70;99.90;;;;;;2093002;28;20396;-67
2022/03/07 02:16:58;;;;;;;21.67;17.00;;;0.80;99.90;;;;;;2092267;28;20032;-67
2022/03/07 02:17:58;;;;;;;19.38;17.02;;;0.80;99.90;;;;;;2094202;28;20433;-67
2022/03/07 02:18:59;;;;;;;20.17;17.00;;;0.80;99.90;;;;;;2096500;28;20029;-67
2022/03/07 02:20:00;;;;;;;22.88;18.35;;;0.80;99.90;;;;;;2095566;28;20035;-68
2022/03/07 02:21:14;;;;;;;19.83;16.27;;;0.80;99.90;;;;;;2094551;28;20033;-69
2022/03/07 02:22:17;;;;;;;18.83;16.80;;;0.80;99.90;;;;;;2090727;28;20035;-67
2022/03/07 02:23:18;;;;;;;19.95;17.17;;;0.80;99.90;;;;;;2095347;28;20033;-67
2022/03/07 02:24:19;;;;;;;23.73;18.58;;;0.80;99.90;;;;;;2094109;28;20112;-67
2022/03/07 02:25:19;;;;;;;20.52;17.83;;;0.90;99.90;;;;;;2094727;28;20040;-67
2022/03/07 02:26:20;;;;;;;23.75;18.52;;;0.90;99.90;;;;;;2093503;28;20033;-67
2022/03/07 02:27:20;;;;;;;20.13;17.90;;;0.90;99.90;;;;;;2094783;28;20043;-67
2022/03/07 02:28:21;;;;;;;19.67;17.60;;;0.90;99.90;;;;;;2096428;28;20035;-67
2022/03/07 02:29:22;;;;;;;20.27;17.85;;;0.90;99.90;;;;;;2093248;28;20911;-67
2022/03/07 02:30:22;;;;;;;21.52;17.83;;;0.90;99.90;;;;;;2094480;28;20061;-67
2022/03/07 02:31:23;;;;;;;18.17;16.23;;;0.90;99.90;;;;;;2092161;28;20044;-67
2022/03/07 02:32:24;;;;;;;23.58;17.30;;;1.00;99.90;;;;;;2093882;28;20025;-67
2022/03/07 02:33:24;;;;;;;22.40;17.63;;;1.00;99.90;;;;;;2092603;28;20017;-67
2022/03/07 02:34:26;;;;;;;22.20;17.30;;;1.00;99.90;;;;;;2094174;28;20025;-67
2022/03/07 02:35:26;;;;;;;18.80;16.60;;;1.00;99.90;;;;;;2094057;28;20408;-67
2022/03/07 02:36:27;;;;;;;20.15;17.85;;;1.00;99.90;;;;;;2091687;28;20077;-67
2022/03/07 02:37:27;;;;;;;20.08;17.20;;;1.00;99.90;;;;;;2091612;28;20013;-67
2022/03/07 02:38:28;;;;;;;19.25;17.25;;;1.10;99.90;;;;;;2095914;28;20047;-67
2022/03/07 02:39:28;;;;;;;20.80;17.05;;;1.00;99.90;;;;;;2094233;28;20082;-67
2022/03/07 02:40:29;;;;;;;18.45;16.50;;;1.10;99.90;;;;;;2094194;28;20035;-67
2022/03/07 02:41:30;;;;;;;20.48;16.88;;;1.10;99.90;;;;;;2092837;28;20035;-67
2022/03/07 02:42:30;;;;;;;18.40;16.42;;;1.10;99.90;;;;;;2095034;28;20025;-67
2022/03/07 02:43:31;;;;;;;17.33;15.40;;;1.10;99.90;;;;;;2091304;28;20021;-67
2022/03/07 02:44:31;;;;;;;19.33;17.27;;;1.10;99.90;;;;;;2094457;28;20017;-67
2022/03/07 02:45:32;;;;;;;20.30;17.02;;;1.10;99.90;;;;;;2094743;28;20025;-67
2022/03/07 02:46:33;;;;;;;22.13;16.15;;;1.20;99.90;;;;;;2092552;28;20035;-67
2022/03/07 02:47:33;;;;;;;19.25;17.00;;;1.20;99.90;;;;;;2094942;28;20033;-67
2022/03/07 02:48:34;;;;;;;19.60;16.58;;;1.20;99.90;;;;;;2097183;28;20025;-67
2022/03/07 02:49:34;;;;;;;20.17;16.70;;;1.20;99.90;;;;;;2093053;28;20712;-67
2022/03/07 02:50:35;;;;;;;21.83;17.00;;;1.20;99.90;;;;;;2094590;28;20779;-67
2022/03/07 02:51:35;;;;;;;19.33;16.20;;;1.20;99.90;;;;;;2095288;28;20106;-67
2022/03/07 02:52:36;;;;;;;18.55;16.33;;;1.20;99.90;;;;;;2094071;28;20108;-67
2022/03/07 02:53:37;;;;;;;19.27;16.80;;;1.20;99.90;;;;;;2093473;28;20091;-67
2022/03/07 02:54:38;;;;;;;19.17;16.58;;;1.20;99.90;;;;;;2095314;28;20046;-67
2022/03/07 02:55:38;;;;;;;17.55;15.63;;;1.20;99.90;;;;;;2093400;28;20415;-67
2022/03/07 02:56:39;;;;;;;18.23;15.35;;;1.30;99.90;;;;;;2094083;28;20028;-67
2022/03/07 02:57:40;;;;;;;21.83;15.75;;;1.30;99.90;;;;;;2096707;28;20024;-67
2022/03/07 02:58:40;;;;;;;19.73;16.20;;;1.30;99.90;;;;;;2092393;28;20026;-67
2022/03/07 02:59:41;;;;;;;21.38;16.90;;;1.30;99.90;;;;;;2098396;28;20017;-68
2022/03/07 03:00:41;;;;;;;17.25;15.15;;;1.30;99.90;;;;;;2094188;28;20028;-67
2022/03/07 03:01:47;;;;;;;19.95;16.77;;;1.30;99.90;;;;;;2090651;28;20024;-67
2022/03/07 03:02:47;;;;;;;18.05;15.75;;;1.40;99.90;;;;;;2094147;28;20017;-67
2022/03/07 03:03:48;;;;;;;18.20;16.15;;;1.40;99.90;;;;;;2095505;28;20461;-67
2022/03/07 03:04:49;;;;;;;17.80;15.13;;;1.40;99.90;;;;;;2093905;28;20396;-68
2022/03/07 03:05:54;;;;;;;20.27;16.77;;;1.40;99.90;;;;;;2095015;28;20055;-67
2022/03/07 03:06:54;;;;;;;17.55;15.40;;;1.40;99.90;;;;;;2097065;28;20050;-67
2022/03/07 03:07:55;;;;;;;21.02;16.50;;;1.40;99.90;;;;;;2095951;28;20750;-67
2022/03/07 03:08:56;;;;;;;20.95;16.63;;;1.50;99.90;;;;;;2093002;28;20021;-67
2022/03/07 03:09:56;;;;;;;17.38;15.48;;;1.50;99.90;;;;;;2094571;28;20051;-67
2022/03/07 03:10:57;;;;;;;21.13;15.75;;;1.50;99.90;;;;;;2097812;28;20040;-67
2022/03/07 03:11:57;;;;;;;18.40;15.88;;;1.50;99.90;;;;;;2092395;28;20037;-67
2022/03/07 03:12:58;;;;;;;20.63;17.08;;;1.50;99.90;;;;;;2098378;28;20446;-67
2022/03/07 03:13:59;;;;;;;19.50;15.40;;;1.50;99.90;;;;;;2089559;28;20033;-67
2022/03/07 03:14:59;;;;;;;18.90;15.85;;;1.50;99.90;;;;;;2100988;28;20435;-67
2022/03/07 03:16:00;;;;;;;18.95;16.02;;;1.50;99.90;;;;;;2094587;28;20013;-67
2022/03/07 03:17:02;;;;;;;18.45;14.88;;;1.50;99.90;;;;;;2094623;28;20036;-67
2022/03/07 03:18:02;;;;;;;18.67;16.02;;;1.60;99.90;;;;;;2093232;28;20112;-67
2022/03/07 03:19:03;;;;;;;18.55;16.55;;;1.60;99.90;;;;;;2099565;28;20048;-67
2022/03/07 03:20:04;;;;;;;17.13;15.00;;;1.60;99.90;;;;;;2095568;28;20496;-67
2022/03/07 03:21:04;;;;;;;19.10;16.10;;;1.60;99.90;;;;;;2095637;28;20027;-67
2022/03/07 03:22:05;;;;;;;19.42;15.55;;;1.60;99.90;;;;;;2094549;28;20064;-67
2022/03/07 03:23:06;;;;;;;20.60;15.20;;;1.60;99.90;;;;;;2093113;28;20474;-67
2022/03/07 03:24:06;;;;;;;20.30;16.73;;;1.70;99.90;;;;;;2093412;28;20016;-67
2022/03/07 03:25:09;;;;;;;18.73;16.00;;;1.60;99.90;;;;;;2095000;28;20571;-67
2022/03/07 03:26:10;;;;;;;17.70;15.40;;;1.70;99.90;;;;;;2093235;28;20111;-67
2022/03/07 03:27:10;;;;;;;19.05;16.02;;;1.70;99.90;;;;;;2094712;28;20036;-67
2022/03/07 03:28:12;;;;;;;17.73;15.73;;;1.70;99.90;;;;;;2096809;28;20051;-67
2022/03/07 03:29:12;;;;;;;19.50;15.27;;;1.70;99.90;;;;;;2091825;28;20403;-67
2022/03/07 03:30:14;;;;;;;16.58;14.82;;;1.70;99.90;;;;;;2096148;28;20027;-67
2022/03/07 03:31:14;;;;;;;17.88;15.77;;;1.70;99.90;;;;;;2094200;28;20020;-67
2022/03/07 03:32:15;;;;;;;17.25;15.00;;;1.80;99.90;;;;;;2094666;28;20525;-67
2022/03/07 03:33:16;;;;;;;16.67;14.98;;;1.80;99.90;;;;;;2094192;28;20073;-68
2022/03/07 03:34:16;;;;;;;17.80;15.18;;;1.80;99.90;;;;;;2095329;28;20029;-67
2022/03/07 03:35:17;;;;;;;17.23;15.07;;;1.80;99.90;;;;;;2096190;28;20337;-68
2022/03/07 03:36:18;;;;;;;18.65;15.43;;;1.80;99.90;;;;;;2095318;28;20033;-68
2022/03/07 03:37:18;;;;;;;17.67;14.88;;;1.80;99.90;;;;;;2093588;28;20020;-67
2022/03/07 03:38:19;;;;;;;18.38;16.02;;;1.80;99.90;;;;;;2099082;28;20032;-67
2022/03/07 03:39:19;;;;;;;17.17;15.07;;;1.80;99.90;;;;;;2094962;28;20566;-67
2022/03/07 03:40:20;;;;;;;18.67;15.73;;;1.80;99.90;;;;;;2097455;28;20082;-68
2022/03/07 03:41:20;;;;;;;19.02;15.20;;;1.80;99.90;;;;;;2090422;28;20082;-67
2022/03/07 03:42:22;;;;;;;15.63;13.93;;;1.80;99.90;;;;;;2097100;28;20024;-67
2022/03/07 03:43:23;;;;;;;18.20;15.45;;;1.80;99.90;;;;;;2101004;28;20456;-67
2022/03/07 03:44:23;;;;;;;18.48;15.45;;;1.90;99.90;;;;;;2092585;28;20411;-67
2022/03/07 03:45:24;;;;;;;17.70;14.88;;;1.90;99.90;;;;;;2097150;28;20016;-67
2022/03/07 03:46:25;;;;;;;15.60;13.98;;;1.90;99.90;;;;;;2095922;28;20056;-67
2022/03/07 03:47:25;;;;;;;16.73;14.65;;;1.90;99.90;;;;;;2092664;28;20017;-68
2022/03/07 03:48:26;;;;;;;18.27;15.60;;;1.90;99.90;;;;;;2097136;28;20071;-68
2022/03/07 03:49:29;;;;;;;17.50;15.68;;;1.90;99.90;;;;;;2094890;28;20585;-67
2022/03/07 03:50:29;;;;;;;17.95;15.23;;;1.90;99.90;;;;;;2095522;28;20028;-67
2022/03/07 03:51:30;;;;;;;18.30;14.52;;;1.90;99.90;;;;;;2096442;28;20558;-67
2022/03/07 03:52:31;;;;;;;18.75;16.00;;;1.90;99.90;;;;;;2094257;28;20020;-67
2022/03/07 03:53:31;;;;;;;20.05;15.05;;;2.00;99.90;;;;;;2096447;28;20031;-67
2022/03/07 03:54:32;;;;;;;17.50;15.05;;;1.90;99.90;;;;;;2095893;28;20024;-67
2022/03/07 03:55:32;;;;;;;17.20;15.05;;;1.90;99.90;;;;;;2099104;28;20016;-67
2022/03/07 03:56:33;;;;;;;17.67;15.75;;;1.90;99.90;;;;;;2092755;28;20031;-68
2022/03/07 03:57:34;;;;;;;19.48;15.82;;;1.90;99.90;;;;;;2097396;28;20063;-67
2022/03/07 03:58:34;;;;;;;17.20;15.02;;;1.90;99.90;;;;;;2097121;28;20012;-67
2022/03/07 03:59:35;;;;;;;17.55;15.10;;;2.00;99.90;;;;;;2091301;28;20032;-67
2022/03/07 04:00:35;;;;;;;16.70;14.60;;;2.00;99.90;;;;;;2094159;28;20032;-67
2022/03/07 04:01:36;;;;;;;17.02;15.13;;;2.00;99.90;;;;;;2096286;28;20035;-67
2022/03/07 04:02:36;;;;;;;16.77;14.32;;;2.00;99.90;;;;;;2096415;28;20021;-67
2022/03/07 04:03:37;;;;;;;18.95;16.20;;;2.00;99.90;;;;;;2095010;28;20020;-67
2022/03/07 04:04:37;;;;;;;17.58;14.70;;;2.00;99.90;;;;;;2094680;28;20480;-67
2022/03/07 04:05:38;;;;;;;18.80;15.52;;;2.00;99.90;;;;;;2089912;28;20101;-69
2022/03/07 04:06:40;;;;;;;17.30;14.82;;;2.00;99.90;;;;;;2098834;28;20491;-67
2022/03/07 04:07:42;;;;;;;17.25;14.23;;;2.00;99.90;;;;;;2091935;28;20137;-67
2022/03/07 04:08:42;;;;;;;17.13;15.10;;;2.00;99.90;;;;;;2095000;28;20365;-67
2022/03/07 04:09:43;;;;;;;16.73;14.75;;;2.00;99.90;;;;;;2094296;28;20012;-67
2022/03/07 04:10:43;;;;;;;16.38;14.05;;;2.00;99.90;;;;;;2093531;28;20280;-67
2022/03/07 04:11:45;;;;;;;17.83;14.40;;;2.00;99.90;;;;;;2095635;28;20035;-67
2022/03/07 04:12:45;;;;;;;18.30;15.45;;;2.00;99.90;;;;;;2091013;28;20016;-67
2022/03/07 04:13:46;;;;;;;17.23;14.70;;;2.00;99.90;;;;;;2093442;28;20032;-67
2022/03/07 04:14:46;;;;;;;15.15;13.55;;;2.00;99.90;;;;;;2096422;28;20025;-68
2022/03/07 04:15:48;;;;;;;18.13;15.30;;;2.00;99.90;;;;;;2093270;28;20032;-67
2022/03/07 04:16:49;;;;;;;16.00;14.32;;;2.00;99.90;;;;;;2095696;28;20028;-67
2022/03/07 04:17:51;;;;;;;18.05;14.82;;;2.00;99.90;;;;;;2091785;28;20012;-67
2022/03/07 04:18:51;;;;;;;17.02;15.13;;;2.00;99.90;;;;;;2092705;28;20071;-67
2022/03/07 04:19:52;;;;;;;16.77;14.20;;;2.00;99.90;;;;;;2089016;28;20025;-68
2022/03/07 04:20:53;;;;;;;17.63;14.77;;;2.00;99.90;;;;;;2093073;28;20032;-67
2022/03/07 04:21:53;;;;;;;17.88;14.40;;;2.00;99.90;;;;;;2093494;28;20020;-67
2022/03/07 04:22:54;;;;;;;18.13;14.52;;;2.00;99.90;;;;;;2095023;28;20094;-67
2022/03/07 04:23:55;;;;;;;17.58;14.98;;;2.00;99.90;;;;;;2095696;28;20476;-67
2022/03/07 04:24:55;;;;;;;17.42;14.27;;;2.00;99.90;;;;;;2092443;28;20027;-67
2022/03/07 04:25:56;;;;;;;18.10;15.32;;;2.00;99.90;;;;;;2094843;28;20538;-67
2022/03/07 04:26:57;;;;;;;18.23;15.43;;;2.00;99.90;;;;;;2093654;28;20024;-67
2022/03/07 04:27:58;;;;;;;16.15;14.23;;;2.00;99.90;;;;;;2090822;28;20028;-67
2022/03/07 04:29:00;;;;;;;17.55;14.52;;;2.00;99.90;;;;;;2090940;28;20029;-67
2022/03/07 04:30:03;;;;;;;18.83;14.68;;;2.00;99.90;;;;;;2088778;28;20021;-67
2022/03/07 04:31:03;;;;;;;16.52;14.63;;;2.00;99.90;;;;;;2093680;28;20046;-67
2022/03/07 04:32:04;;;;;;;17.17;14.73;;;2.00;99.90;;;;;;2095146;28;20058;-68
2022/03/07 04:33:04;;;;;;;15.95;14.27;;;2.10;99.90;;;;;;2093974;28;20075;-67
2022/03/07 04:34:09;;;;;;;20.75;15.32;;;2.00;99.90;;;;;;2094509;28;20028;-67
2022/03/07 04:35:11;;;;;;;16.88;14.45;;;2.10;99.90;;;;;;2092896;28;20024;-67
2022/03/07 04:36:14;;;;;;;16.85;14.23;;;2.10;99.90;;;;;;2093672;28;20029;-67
2022/03/07 04:37:15;;;;;;;16.95;14.02;;;2.10;99.90;;;;;;2095575;28;20024;-67
2022/03/07 04:38:15;;;;;;;19.05;14.30;;;2.10;99.90;;;;;;2094404;28;20099;-67
2022/03/07 04:39:16;;;;;;;16.98;14.90;;;2.10;99.90;;;;;;2101006;28;20585;-67
2022/03/07 04:40:17;;;;;;;17.48;13.95;;;2.10;99.90;;;;;;2093403;28;20028;-68
2022/03/07 04:41:18;;;;;;;18.85;14.40;;;2.10;99.90;;;;;;2094756;28;20055;-67
2022/03/07 04:42:19;;;;;;;17.17;13.45;;;2.10;99.90;;;;;;2093680;28;20033;-71
2022/03/07 04:43:20;;;;;;;15.60;13.98;;;2.10;99.90;;;;;;2093165;28;20367;-67
2022/03/07 04:44:21;;;;;;;16.83;14.50;;;2.10;99.90;;;;;;2094187;28;20207;-67
2022/03/07 04:45:22;;;;;;;15.27;13.55;;;2.10;99.90;;;;;;2094234;28;20541;-67
2022/03/07 04:46:23;;;;;;;15.52;13.93;;;2.20;99.90;;;;;;2093878;28;20036;-67
2022/03/07 04:47:23;;;;;;;15.30;13.70;;;2.10;99.90;;;;;;2096382;28;20056;-67
2022/03/07 04:48:25;;;;;;;14.93;13.32;;;2.10;99.90;;;;;;2094810;28;20028;-67
2022/03/07 04:49:25;;;;;;;17.05;14.43;;;2.10;99.90;;;;;;2089129;28;20104;-67
2022/03/07 04:50:26;;;;;;;18.60;13.88;;;2.20;99.90;;;;;;2095440;28;20028;-68
2022/03/07 04:51:27;;;;;;;15.13;13.52;;;2.20;99.90;;;;;;2092936;28;20063;-67
2022/03/07 04:52:27;;;;;;;16.55;13.70;;;2.20;99.90;;;;;;2093965;28;20468;-68
2022/03/07 04:53:28;;;;;;;15.23;13.57;;;2.20;99.90;;;;;;2095009;28;20434;-67
2022/03/07 04:54:28;;;;;;;15.13;13.48;;;2.20;99.90;;;;;;2095987;28;20090;-67
2022/03/07 04:55:29;;;;;;;15.73;14.07;;;2.20;99.90;;;;;;2090312;28;20078;-67
2022/03/07 04:56:29;;;;;;;16.60;13.63;;;2.20;99.90;;;;;;2092306;28;20400;-68
2022/03/07 04:57:30;;;;;;;18.55;14.88;;;2.20;99.90;;;;;;2093331;28;20407;-67
2022/03/07 04:58:30;;;;;;;16.17;14.27;;;2.20;99.90;;;;;;2095360;28;20025;-67
2022/03/07 04:59:31;;;;;;;15.95;14.35;;;2.20;99.90;;;;;;2091516;28;20109;-67
2022/03/07 05:00:32;;;;;;;14.95;13.35;;;2.20;99.90;;;;;;2090062;28;20028;-67
2022/03/07 05:01:33;;;;;;;15.98;12.82;;;2.20;99.90;;;;;;2091507;28;20025;-67
2022/03/07 05:02:33;;;;;;;14.45;12.98;;;2.20;99.90;;;;;;2095622;28;20052;-67
2022/03/07 05:03:34;;;;;;;18.88;14.57;;;2.20;99.90;;;;;;2093723;28;20405;-67
2022/03/07 05:04:34;;;;;;;17.35;14.40;;;2.20;99.90;;;;;;2090351;28;20032;-67
2022/03/07 05:05:35;;;;;;;15.38;13.77;;;2.20;99.90;;;;;;2093177;28;20056;-67
2022/03/07 05:06:35;;;;;;;15.75;13.52;;;2.20;99.90;;;;;;2095113;28;20033;-67
2022/03/07 05:07:36;;;;;;;15.18;13.32;;;2.20;99.90;;;;;;2093642;28;20025;-67
2022/03/07 05:08:38;;;;;;;16.15;13.50;;;2.20;99.90;;;;;;2095014;28;20029;-67
2022/03/07 05:09:38;;;;;;;16.35;14.15;;;2.20;99.90;;;;;;2090861;28;20016;-68
2022/03/07 05:10:39;;;;;;;16.38;13.48;;;2.20;99.90;;;;;;2092378;28;20028;-67
2022/03/07 05:11:39;;;;;;;15.43;13.60;;;2.20;99.90;;;;;;2091477;28;20024;-67
2022/03/07 05:12:40;;;;;;;18.73;14.77;;;2.30;99.90;;;;;;2090504;28;20033;-67
2022/03/07 05:13:40;;;;;;;15.13;12.98;;;2.30;99.90;;;;;;2093925;28;20029;-67